createdAt,value
2018-08-19T00:01:12.217Z,13.70
2018-08-19T00:03:40.796Z,13.70
2018-08-19T00:06:09.402Z,13.70
2018-08-19T00:08:37.968Z,13.80
2018-08-19T00:11:07.832Z,13.80
2018-08-19T00:13:37.429Z,13.80
2018-08-19T00:16:06.368Z,13.80
2018-08-19T00:18:36.232Z,13.80
2018-08-19T00:21:09.517Z,13.90
2018-08-19T00:23:43.456Z,13.80
2018-08-19T00:26:13.301Z,13.80
2018-08-19T00:28:41.848Z,13.70
2018-08-19T00:31:10.444Z,13.70
2018-08-19T00:33:39.069Z,13.60
2018-08-19T00:36:26.396Z,13.70
2018-08-19T00:38:55.794Z,13.70
2018-08-19T00:41:24.454Z,13.70
2018-08-19T00:43:53.007Z,13.70
2018-08-19T00:46:26.839Z,13.80
2018-08-19T00:48:55.446Z,13.90
2018-08-19T00:51:24.037Z,14.00
2018-08-19T00:53:52.632Z,14.00
2018-08-19T00:56:21.169Z,14.10
2018-08-19T00:58:49.782Z,14.10
2018-08-19T01:01:30.015Z,14.20
2018-08-19T01:03:59.148Z,14.20
2018-08-19T01:06:28.234Z,14.20
2018-08-19T01:08:56.884Z,14.20
2018-08-19T01:11:34.939Z,14.20
2018-08-19T01:14:07.375Z,14.10
2018-08-19T01:16:35.973Z,14.10
2018-08-19T01:19:04.653Z,14.10
2018-08-19T01:21:33.686Z,14.10
2018-08-19T01:24:04.714Z,14.20
2018-08-19T01:26:33.778Z,14.20
2018-08-19T01:29:02.421Z,14.30
2018-08-19T01:31:30.965Z,14.30
2018-08-19T01:33:59.653Z,14.40
2018-08-19T01:36:29.707Z,14.40
2018-08-19T01:38:58.488Z,14.50
2018-08-19T01:41:27.028Z,14.50
2018-08-19T01:44:06.800Z,14.60
2018-08-19T01:46:50.436Z,14.60
2018-08-19T01:49:18.980Z,14.70
2018-08-19T01:51:47.767Z,14.70
2018-08-19T01:54:22.200Z,14.80
2018-08-19T01:56:52.593Z,14.80
2018-08-19T01:59:21.226Z,14.90
2018-08-19T02:01:50.907Z,14.90
2018-08-19T02:04:20.106Z,14.90
2018-08-19T02:06:48.635Z,14.90
2018-08-19T02:09:18.285Z,14.90
2018-08-19T02:11:51.859Z,14.90
2018-08-19T02:14:21.195Z,14.90
2018-08-19T02:16:50.569Z,14.90
2018-08-19T02:19:19.200Z,14.90
2018-08-19T02:21:48.551Z,14.90
2018-08-19T02:24:17.576Z,14.90
2018-08-19T02:26:46.216Z,14.90
2018-08-19T02:29:31.966Z,14.80
2018-08-19T02:32:02.710Z,14.80
2018-08-19T02:34:37.428Z,14.80
2018-08-19T02:37:14.240Z,14.80
2018-08-19T02:39:44.683Z,14.80
2018-08-19T02:42:26.101Z,14.90
2018-08-19T02:44:58.223Z,14.90
2018-08-19T02:47:26.791Z,14.90
2018-08-19T02:49:55.393Z,14.80
2018-08-19T02:52:36.148Z,14.80
2018-08-19T02:55:06.652Z,14.80
2018-08-19T02:57:36.216Z,14.70
2018-08-19T03:00:05.176Z,14.70
2018-08-19T03:02:35.884Z,14.80
2018-08-19T03:05:07.734Z,14.80
2018-08-19T03:07:36.281Z,14.80
2018-08-19T03:10:10.983Z,14.90
2018-08-19T03:12:40.001Z,14.90
2018-08-19T03:15:09.929Z,14.90
2018-08-19T03:17:38.612Z,15.00
2018-08-19T03:20:09.388Z,15.00
2018-08-19T03:22:37.947Z,15.10
2018-08-19T03:25:06.992Z,15.10
2018-08-19T03:27:35.544Z,15.20
2018-08-19T03:30:06.589Z,15.20
2018-08-19T03:32:35.222Z,15.30
2018-08-19T03:35:12.984Z,15.30
2018-08-19T03:37:41.484Z,15.40
2018-08-19T03:40:10.100Z,15.40
2018-08-19T03:42:38.596Z,15.50
2018-08-19T03:45:11.356Z,15.50
2018-08-19T03:47:39.855Z,15.60
2018-08-19T03:50:13.803Z,15.70
2018-08-19T03:52:43.688Z,15.70
2018-08-19T03:55:17.620Z,15.80
2018-08-19T03:57:46.219Z,15.80
2018-08-19T04:00:16.276Z,15.80
2018-08-19T04:02:44.827Z,15.90
2018-08-19T04:05:13.440Z,15.90
2018-08-19T04:07:42.698Z,15.90
2018-08-19T04:10:11.654Z,16.00
2018-08-19T04:12:40.213Z,16.00
2018-08-19T04:15:10.156Z,16.00
2018-08-19T04:17:38.742Z,16.10
2018-08-19T04:20:07.673Z,16.10
2018-08-19T04:22:36.212Z,16.10
2018-08-19T04:25:04.860Z,16.10
2018-08-19T04:27:33.408Z,16.20
2018-08-19T04:30:01.926Z,16.20
2018-08-19T04:32:30.457Z,16.20
2018-08-19T04:34:59.569Z,16.30
2018-08-19T04:37:28.688Z,16.30
2018-08-19T04:39:57.975Z,16.30
2018-08-19T04:42:26.581Z,16.30
2018-08-19T04:44:55.309Z,16.40
2018-08-19T04:47:34.433Z,16.40
2018-08-19T04:50:02.952Z,16.40
2018-08-19T04:52:32.813Z,16.50
2018-08-19T04:55:01.484Z,16.50
2018-08-19T04:57:30.008Z,16.50
2018-08-19T04:59:58.547Z,16.60
2018-08-19T05:02:27.086Z,16.60
2018-08-19T05:04:55.627Z,16.60
2018-08-19T05:07:24.136Z,16.60
2018-08-19T05:09:52.712Z,16.70
2018-08-19T05:12:21.257Z,16.70
2018-08-19T05:14:49.756Z,16.70
2018-08-19T05:17:18.288Z,16.80
2018-08-19T05:19:46.839Z,16.80
2018-08-19T05:22:15.790Z,16.80
2018-08-19T05:24:45.772Z,16.90
2018-08-19T05:27:15.357Z,16.90
2018-08-19T05:29:44.023Z,17.00
2018-08-19T05:32:13.980Z,17.00
2018-08-19T05:34:42.962Z,17.00
2018-08-19T05:37:11.576Z,17.00
2018-08-19T05:39:45.263Z,17.10
2018-08-19T05:42:14.264Z,17.10
2018-08-19T05:44:43.512Z,17.20
2018-08-19T05:47:15.038Z,17.20
2018-08-19T05:49:44.660Z,17.30
2018-08-19T05:52:22.388Z,17.30
2018-08-19T05:55:02.152Z,17.40
2018-08-19T05:57:31.912Z,17.40
2018-08-19T06:00:04.636Z,17.50
2018-08-19T06:02:38.630Z,17.50
2018-08-19T06:05:07.172Z,17.60
2018-08-19T06:07:35.768Z,17.60
2018-08-19T06:10:04.703Z,17.70
2018-08-19T06:12:33.322Z,17.80
2018-08-19T06:15:02.347Z,17.80
2018-08-19T06:17:30.879Z,17.90
2018-08-19T06:19:59.496Z,18.00
2018-08-19T06:22:33.348Z,18.00
2018-08-19T06:25:01.944Z,18.10
2018-08-19T06:27:35.501Z,18.20
2018-08-19T06:30:04.466Z,18.20
2018-08-19T06:32:33.517Z,18.30
2018-08-19T06:35:02.230Z,18.40
2018-08-19T06:37:30.638Z,18.40
2018-08-19T06:39:59.264Z,18.50
2018-08-19T06:42:27.784Z,18.60
2018-08-19T06:44:56.397Z,18.70
2018-08-19T06:47:24.989Z,18.70
2018-08-19T06:49:54.624Z,18.70
2018-08-19T06:52:23.998Z,18.80
2018-08-19T06:54:52.765Z,18.80
2018-08-19T06:57:21.396Z,18.80
2018-08-19T06:59:50.005Z,18.90
2018-08-19T07:02:18.706Z,19.00
2018-08-19T07:04:48.372Z,19.00
2018-08-19T07:07:18.097Z,19.00
2018-08-19T07:09:46.728Z,19.00
2018-08-19T07:12:22.819Z,18.90
2018-08-19T07:14:51.612Z,18.90
2018-08-19T07:17:20.453Z,18.90
2018-08-19T07:19:49.067Z,18.90
2018-08-19T07:22:18.936Z,18.90
2018-08-19T07:24:47.508Z,18.90
2018-08-19T07:27:16.108Z,18.90
2018-08-19T07:29:44.748Z,18.90
2018-08-19T07:32:13.856Z,18.90
2018-08-19T07:34:42.402Z,19.00
2018-08-19T07:37:11.009Z,19.00
2018-08-19T07:39:46.192Z,19.10
2018-08-19T07:42:15.119Z,19.10
2018-08-19T07:44:43.700Z,19.10
2018-08-19T07:47:12.252Z,19.10
2018-08-19T07:49:40.797Z,19.20
2018-08-19T07:52:09.310Z,19.20
2018-08-19T07:54:37.859Z,19.30
2018-08-19T07:57:16.335Z,19.40
2018-08-19T07:59:47.176Z,19.40
2018-08-19T08:02:15.768Z,19.40
2018-08-19T08:04:45.225Z,19.40
2018-08-19T08:07:14.977Z,19.50
2018-08-19T08:09:43.793Z,19.60
2018-08-19T08:12:13.610Z,19.70
2018-08-19T08:14:47.601Z,19.80
2018-08-19T08:17:16.238Z,19.90
2018-08-19T08:19:52.880Z,20.10
2018-08-19T08:22:21.885Z,20.20
2018-08-19T08:24:50.466Z,20.30
2018-08-19T08:27:19.046Z,20.50
2018-08-19T08:29:47.595Z,20.50
2018-08-19T08:32:16.183Z,20.50
2018-08-19T08:34:44.745Z,20.50
2018-08-19T08:37:13.581Z,20.50
2018-08-19T08:39:42.212Z,20.50
2018-08-19T08:42:10.755Z,20.50
2018-08-19T08:44:39.371Z,20.50
2018-08-19T08:47:11.136Z,20.50
2018-08-19T08:49:45.139Z,20.60
2018-08-19T08:52:19.127Z,20.80
2018-08-19T08:54:53.079Z,20.90
2018-08-19T08:57:22.453Z,20.90
2018-08-19T08:59:51.532Z,21.00
2018-08-19T09:02:20.741Z,21.10
2018-08-19T09:04:50.077Z,21.10
2018-08-19T09:07:19.159Z,21.20
2018-08-19T09:09:48.262Z,21.20
2018-08-19T09:12:19.009Z,21.30
2018-08-19T09:14:47.706Z,21.30
2018-08-19T09:17:16.251Z,21.30
2018-08-19T09:19:44.882Z,21.30
2018-08-19T09:22:13.481Z,21.20
2018-08-19T09:24:42.040Z,21.30
2018-08-19T09:27:10.699Z,21.40
2018-08-19T09:29:39.215Z,21.40
2018-08-19T09:32:07.856Z,21.20
2018-08-19T09:34:36.391Z,21.10
2018-08-19T09:37:04.998Z,21.10
2018-08-19T09:39:33.581Z,21.20
2018-08-19T09:42:09.325Z,21.30
2018-08-19T09:44:38.488Z,21.60
2018-08-19T09:47:07.360Z,21.90
2018-08-19T09:49:36.154Z,22.20
2018-08-19T09:52:04.812Z,22.30
2018-08-19T09:54:35.345Z,22.40
2018-08-19T09:57:04.748Z,22.60
2018-08-19T09:59:33.317Z,22.80
2018-08-19T10:02:05.741Z,23.00
2018-08-19T10:04:34.541Z,23.10
2018-08-19T10:07:08.576Z,23.00
2018-08-19T10:09:37.165Z,22.80
2018-08-19T10:12:05.751Z,22.60
2018-08-19T10:14:34.348Z,22.30
2018-08-19T10:17:02.944Z,22.20
2018-08-19T10:19:31.508Z,22.00
2018-08-19T10:22:00.045Z,21.80
2018-08-19T10:24:29.846Z,21.80
2018-08-19T10:26:58.742Z,22.00
2018-08-19T10:29:27.343Z,22.40
2018-08-19T10:31:59.598Z,22.70
2018-08-19T10:34:29.444Z,22.80
2018-08-19T10:36:58.614Z,23.10
2018-08-19T10:39:27.183Z,23.40
2018-08-19T10:42:11.065Z,23.40
2018-08-19T10:44:39.596Z,23.50
2018-08-19T10:47:08.166Z,23.40
2018-08-19T10:49:36.689Z,23.20
2018-08-19T10:52:07.636Z,22.90
2018-08-19T10:54:36.157Z,22.70
2018-08-19T10:57:16.585Z,22.50
2018-08-19T10:59:45.739Z,22.40
2018-08-19T11:02:14.308Z,22.70
2018-08-19T11:04:45.776Z,22.90
2018-08-19T11:07:14.357Z,23.10
2018-08-19T11:09:54.015Z,23.20
2018-08-19T11:12:22.808Z,23.30
2018-08-19T11:14:51.348Z,23.20
2018-08-19T11:17:19.924Z,23.20
2018-08-19T11:19:50.834Z,23.10
2018-08-19T11:22:19.476Z,23.20
2018-08-19T11:24:48.047Z,23.50
2018-08-19T11:27:16.608Z,23.50
2018-08-19T11:29:45.168Z,23.40
2018-08-19T11:32:23.132Z,23.40
2018-08-19T11:34:51.680Z,23.20
2018-08-19T11:37:20.347Z,23.30
2018-08-19T11:39:48.949Z,23.30
2018-08-19T11:42:17.556Z,23.20
2018-08-19T11:44:46.061Z,23.30
2018-08-19T11:47:14.617Z,23.40
2018-08-19T11:49:43.154Z,23.40
2018-08-19T11:52:11.829Z,23.70
2018-08-19T11:54:40.424Z,23.80
2018-08-19T11:57:10.433Z,24.00
2018-08-19T11:59:41.250Z,24.20
2018-08-19T12:02:12.104Z,24.00
2018-08-19T12:04:40.568Z,23.90
2018-08-19T12:07:09.129Z,23.80
2018-08-19T12:09:38.888Z,23.70
2018-08-19T12:12:07.416Z,23.70
2018-08-19T12:14:36.976Z,23.90
2018-08-19T12:17:09.309Z,24.20
2018-08-19T12:19:41.388Z,24.50
2018-08-19T12:22:10.206Z,24.60
2018-08-19T12:24:41.749Z,24.50
2018-08-19T12:27:11.704Z,24.30
2018-08-19T12:29:41.389Z,24.10
2018-08-19T12:32:22.144Z,24.00
2018-08-19T12:34:51.856Z,23.80
2018-08-19T12:37:21.674Z,23.90
2018-08-19T12:39:51.037Z,24.10
2018-08-19T12:42:19.618Z,24.30
2018-08-19T12:44:49.725Z,24.20
2018-08-19T12:47:21.590Z,24.20
2018-08-19T12:49:55.545Z,24.30
2018-08-19T12:52:25.590Z,24.50
2018-08-19T12:54:59.508Z,24.50
2018-08-19T12:57:28.135Z,24.80
2018-08-19T13:00:07.376Z,25.00
2018-08-19T13:02:43.495Z,24.90
2018-08-19T13:05:12.755Z,24.70
2018-08-19T13:07:41.603Z,24.70
2018-08-19T13:10:10.254Z,24.90
2018-08-19T13:12:58.271Z,25.00
2018-08-19T13:15:29.230Z,24.80
2018-08-19T13:17:57.912Z,24.80
2018-08-19T13:20:26.801Z,25.00
2018-08-19T13:23:00.416Z,25.00
2018-08-19T13:25:29.249Z,25.10
2018-08-19T13:27:57.870Z,25.10
2018-08-19T13:30:26.455Z,24.90
2018-08-19T13:32:55.071Z,24.90
2018-08-19T13:35:23.610Z,24.90
2018-08-19T13:37:52.246Z,25.00
2018-08-19T13:40:20.818Z,24.90
2018-08-19T13:42:49.396Z,24.70
2018-08-19T13:45:19.169Z,24.50
2018-08-19T13:47:49.021Z,24.20
2018-08-19T13:50:17.604Z,24.10
2018-08-19T13:52:46.263Z,24.00
2018-08-19T13:55:17.078Z,24.00
2018-08-19T13:57:45.737Z,23.90
2018-08-19T14:00:18.454Z,23.70
2018-08-19T14:02:47.592Z,23.70
2018-08-19T14:05:16.153Z,23.80
2018-08-19T14:07:44.718Z,23.70
2018-08-19T14:10:14.443Z,23.60
2018-08-19T14:12:42.993Z,23.70
2018-08-19T14:15:11.755Z,23.70
2018-08-19T14:17:40.444Z,23.50
2018-08-19T14:20:09.826Z,23.40
2018-08-19T14:22:38.380Z,23.20
2018-08-19T14:25:08.441Z,23.30
2018-08-19T14:27:37.172Z,23.20
2018-08-19T14:30:06.459Z,23.10
2018-08-19T14:32:38.080Z,23.20
2018-08-19T14:35:06.952Z,23.10
2018-08-19T14:37:35.758Z,23.00
2018-08-19T14:40:05.405Z,23.00
2018-08-19T14:42:33.976Z,23.00
2018-08-19T14:45:02.732Z,22.90
2018-08-19T14:47:31.299Z,22.90
2018-08-19T14:49:59.966Z,22.90
2018-08-19T14:52:29.001Z,22.80
2018-08-19T14:54:57.598Z,22.80
2018-08-19T14:57:26.195Z,22.70
2018-08-19T14:59:54.757Z,22.60
2018-08-19T15:02:23.316Z,22.50
2018-08-19T15:04:51.823Z,22.50
2018-08-19T15:07:20.385Z,22.40
2018-08-19T15:09:50.651Z,22.40
2018-08-19T15:12:21.171Z,22.40
2018-08-19T15:14:50.268Z,22.30
2018-08-19T15:17:19.030Z,22.40
2018-08-19T15:19:50.626Z,22.30
2018-08-19T15:22:19.360Z,22.20
2018-08-19T15:24:48.020Z,22.10
2018-08-19T15:27:16.629Z,22.00
2018-08-19T15:29:47.388Z,22.00
2018-08-19T15:32:16.239Z,21.90
2018-08-19T15:34:44.562Z,21.90
2018-08-19T15:37:13.190Z,21.90
2018-08-19T15:39:41.770Z,21.90
2018-08-19T15:42:10.284Z,21.90
2018-08-19T15:44:38.945Z,21.90
2018-08-19T15:47:07.537Z,21.90
2018-08-19T15:49:36.107Z,21.80
2018-08-19T15:52:04.874Z,21.80
2018-08-19T15:54:33.442Z,21.80
2018-08-19T15:57:03.418Z,21.80
2018-08-19T15:59:36.459Z,21.80
2018-08-19T16:02:05.187Z,21.70
2018-08-19T16:04:33.771Z,21.80
2018-08-19T16:07:02.425Z,21.70
2018-08-19T16:09:31.809Z,21.70
2018-08-19T16:12:00.454Z,21.70
2018-08-19T16:14:30.055Z,21.70
2018-08-19T16:16:59.804Z,21.60
2018-08-19T16:19:28.368Z,21.60
2018-08-19T16:21:58.009Z,21.60
2018-08-19T16:24:26.947Z,21.60
2018-08-19T16:26:55.537Z,21.60
2018-08-19T16:29:24.075Z,21.60
2018-08-19T16:31:52.809Z,21.60
2018-08-19T16:34:21.584Z,21.60
2018-08-19T16:36:50.206Z,21.60
2018-08-19T16:39:19.185Z,21.50
2018-08-19T16:41:47.743Z,21.50
2018-08-19T16:44:16.321Z,21.50
2018-08-19T16:46:45.021Z,21.50
2018-08-19T16:49:13.645Z,21.50
2018-08-19T16:51:42.322Z,21.50
2018-08-19T16:54:10.893Z,21.50
2018-08-19T16:56:39.457Z,21.50
2018-08-19T16:59:08.015Z,21.50
2018-08-19T17:01:36.583Z,21.50
2018-08-19T17:04:05.168Z,21.50
2018-08-19T17:06:33.791Z,21.50
2018-08-19T17:09:02.285Z,21.50
2018-08-19T17:11:30.824Z,21.40
2018-08-19T17:13:59.305Z,21.40
2018-08-19T17:16:27.778Z,21.40
2018-08-19T17:18:56.345Z,21.40
2018-08-19T17:21:24.852Z,21.40
2018-08-19T17:23:53.377Z,21.40
2018-08-19T17:26:23.047Z,21.40
2018-08-19T17:28:51.788Z,21.40
2018-08-19T17:31:20.611Z,21.30
2018-08-19T17:33:49.119Z,21.30
2018-08-19T17:36:26.793Z,21.20
2018-08-19T17:38:55.392Z,21.20
2018-08-19T17:41:23.924Z,21.20
2018-08-19T17:43:52.452Z,21.20
2018-08-19T17:46:21.338Z,21.20
2018-08-19T17:48:49.831Z,21.10
2018-08-19T17:51:27.897Z,21.10
2018-08-19T17:53:56.439Z,21.10
2018-08-19T17:56:24.925Z,21.10
2018-08-19T17:58:53.478Z,21.10
2018-08-19T18:01:22.388Z,21.10
2018-08-19T18:03:50.929Z,21.10
2018-08-19T18:06:19.458Z,21.00
2018-08-19T18:08:49.751Z,21.10
2018-08-19T18:11:18.708Z,21.00
2018-08-19T18:13:47.447Z,21.00
2018-08-19T18:16:16.344Z,21.00
2018-08-19T18:18:45.593Z,21.00
2018-08-19T18:21:14.180Z,20.90
2018-08-19T18:23:47.424Z,20.90
2018-08-19T18:26:16.065Z,20.80
2018-08-19T18:28:46.323Z,20.50
2018-08-19T18:31:17.506Z,20.30
2018-08-19T18:33:51.774Z,20.00
2018-08-19T18:36:21.497Z,19.80
2018-08-19T18:38:50.084Z,19.60
2018-08-19T18:41:25.079Z,19.50
2018-08-19T18:43:55.596Z,19.40
2018-08-19T18:46:24.648Z,19.40
2018-08-19T18:48:59.904Z,19.50
2018-08-19T18:51:29.122Z,19.50
2018-08-19T18:53:57.686Z,19.50
2018-08-19T18:56:27.362Z,19.60
2018-08-19T18:58:56.047Z,19.60
2018-08-19T19:01:24.616Z,19.60
2018-08-19T19:03:53.276Z,19.70
2018-08-19T19:06:21.904Z,19.70
2018-08-19T19:08:50.729Z,19.70
2018-08-19T19:11:21.538Z,19.70
2018-08-19T19:13:50.047Z,19.70
2018-08-19T19:16:23.002Z,19.70
2018-08-19T19:18:51.593Z,19.70
2018-08-19T19:21:20.121Z,19.70
2018-08-19T19:23:48.686Z,19.60
2018-08-19T19:26:17.297Z,19.60
2018-08-19T19:28:45.873Z,19.50
2018-08-19T19:31:16.694Z,19.50
2018-08-19T19:33:45.189Z,19.50
2018-08-19T19:36:19.281Z,19.50
2018-08-19T19:38:57.764Z,19.50
2018-08-19T19:41:30.666Z,19.50
2018-08-19T19:44:00.617Z,19.50
2018-08-19T19:46:29.201Z,19.50
2018-08-19T19:48:57.753Z,19.50
2018-08-19T19:51:26.263Z,19.50
2018-08-19T19:53:54.806Z,19.50
2018-08-19T19:56:23.356Z,19.50
2018-08-19T19:58:51.880Z,19.50
2018-08-19T20:01:20.499Z,19.50
2018-08-19T20:03:53.692Z,19.50
2018-08-19T20:06:22.504Z,19.50
2018-08-19T20:08:51.224Z,19.50
2018-08-19T20:11:24.973Z,19.50
2018-08-19T20:13:53.616Z,19.50
2018-08-19T20:16:22.176Z,19.50
2018-08-19T20:18:50.724Z,19.50
2018-08-19T20:21:22.923Z,19.50
2018-08-19T20:23:52.556Z,19.50
2018-08-19T20:26:21.703Z,19.40
2018-08-19T20:28:51.772Z,19.40
2018-08-19T20:31:20.279Z,19.40
2018-08-19T20:33:48.832Z,19.40
2018-08-19T20:36:17.380Z,19.40
2018-08-19T20:38:45.989Z,19.30
2018-08-19T20:41:14.591Z,19.30
2018-08-19T20:43:43.148Z,19.30
2018-08-19T20:46:11.678Z,19.20
2018-08-19T20:48:40.213Z,19.20
2018-08-19T20:51:08.765Z,19.20
2018-08-19T20:53:37.312Z,19.20
2018-08-19T20:56:05.905Z,19.20
2018-08-19T20:58:34.495Z,19.20
2018-08-19T21:01:03.100Z,19.20
2018-08-19T21:03:31.881Z,19.20
2018-08-19T21:06:00.452Z,19.20
2018-08-19T21:08:28.965Z,19.20
2018-08-19T21:10:57.588Z,19.20
2018-08-19T21:13:26.172Z,19.10
2018-08-19T21:15:55.577Z,19.10
2018-08-19T21:18:24.150Z,19.10
2018-08-19T21:20:53.926Z,19.10
2018-08-19T21:23:22.471Z,19.10
2018-08-19T21:25:56.759Z,19.10
2018-08-19T21:28:25.332Z,19.10
2018-08-19T21:30:53.904Z,19.10
2018-08-19T21:33:22.500Z,19.00
2018-08-19T21:35:53.781Z,19.10
2018-08-19T21:38:25.381Z,19.10
2018-08-19T21:40:58.032Z,19.10
2018-08-19T21:43:29.649Z,19.10
2018-08-19T21:45:58.719Z,19.10
2018-08-19T21:48:27.276Z,19.10
2018-08-19T21:50:55.784Z,19.10
2018-08-19T21:53:24.412Z,19.10
2018-08-19T21:55:53.684Z,19.10
2018-08-19T21:58:22.334Z,19.10
2018-08-19T22:00:58.824Z,19.10
2018-08-19T22:03:32.676Z,19.10
2018-08-19T22:06:03.552Z,19.10
2018-08-19T22:08:32.154Z,19.10
2018-08-19T22:11:00.696Z,19.10
2018-08-19T22:13:29.409Z,19.10
2018-08-19T22:15:58.038Z,19.10
2018-08-19T22:18:29.441Z,19.00
2018-08-19T22:21:06.033Z,19.10
2018-08-19T22:23:40.647Z,19.10
2018-08-19T22:26:10.435Z,19.00
2018-08-19T22:28:39.344Z,18.90
2018-08-19T22:31:19.973Z,18.90
2018-08-19T22:33:52.104Z,18.70
2018-08-19T22:36:21.051Z,18.40
2018-08-19T22:38:50.255Z,18.20
2018-08-19T22:41:21.705Z,18.10
2018-08-19T22:43:50.499Z,17.90
2018-08-19T22:46:19.080Z,17.90
2018-08-19T22:48:47.700Z,17.80
2018-08-19T22:51:16.202Z,17.80
2018-08-19T22:53:44.740Z,17.80
2018-08-19T22:56:13.296Z,17.70
2018-08-19T22:58:41.858Z,17.70
2018-08-19T23:01:10.439Z,17.70
2018-08-19T23:03:38.996Z,17.70
2018-08-19T23:06:07.528Z,17.60
2018-08-19T23:08:36.108Z,17.70
2018-08-19T23:11:05.118Z,17.60
2018-08-19T23:13:44.820Z,17.60
2018-08-19T23:16:13.688Z,17.60
2018-08-19T23:18:43.015Z,17.60
2018-08-19T23:21:11.751Z,17.60
2018-08-19T23:23:40.260Z,17.70
2018-08-19T23:26:08.772Z,17.70
2018-08-19T23:28:37.255Z,17.70
2018-08-19T23:31:05.796Z,17.70
2018-08-19T23:33:34.313Z,17.70
2018-08-19T23:36:02.809Z,17.70
2018-08-19T23:38:31.329Z,17.70
2018-08-19T23:40:59.796Z,17.70
2018-08-19T23:43:28.337Z,17.70
2018-08-19T23:45:57.629Z,17.70
2018-08-19T23:48:26.100Z,17.70
2018-08-19T23:50:54.603Z,17.70
2018-08-19T23:53:23.089Z,17.70
2018-08-19T23:55:51.660Z,17.70
2018-08-19T23:58:20.180Z,17.70
